createdAt,value
2019-02-21T12:47:58.655Z,0.20
2019-02-21T12:50:27.104Z,14.90
2019-02-21T12:52:55.520Z,13.80
2019-02-21T12:55:29.265Z,14.30
2019-02-21T12:57:54.225Z,15.00
2019-02-21T13:00:22.918Z,15.40
2019-02-21T13:02:51.324Z,15.40
2019-02-21T13:05:19.752Z,15.80
2019-02-21T13:07:48.199Z,15.80
2019-02-21T13:10:18.943Z,16.00
2019-02-21T13:12:47.353Z,14.60
2019-02-21T13:15:16.202Z,14.80
2019-02-21T13:17:44.609Z,15.10
2019-02-21T13:20:16.329Z,14.80
2019-02-21T13:22:44.808Z,13.50
2019-02-21T13:25:18.371Z,13.80
2019-02-21T13:27:46.929Z,14.10
2019-02-21T13:30:16.741Z,14.90
2019-02-21T13:32:45.343Z,15.30
2019-02-21T13:35:14.021Z,15.00
2019-02-21T13:37:42.536Z,14.80
2019-02-21T13:40:14.036Z,14.70
2019-02-21T13:42:42.473Z,14.10
2019-02-21T13:45:13.161Z,13.30
2019-02-21T13:47:41.655Z,13.50
2019-02-21T13:50:15.880Z,13.20
2019-02-21T13:52:44.292Z,13.50
2019-02-21T13:55:12.860Z,13.60
2019-02-21T13:57:41.328Z,13.70
2019-02-21T14:00:21.141Z,13.70
2019-02-21T14:02:49.633Z,13.70
2019-02-21T14:05:18.085Z,13.70
2019-02-21T14:07:46.577Z,13.80
2019-02-21T14:10:15.358Z,13.90
2019-02-21T14:12:43.756Z,13.80
2019-02-21T14:15:18.500Z,13.80
2019-02-21T14:17:47.060Z,13.40
2019-02-21T14:20:15.476Z,13.10
2019-02-21T14:22:43.889Z,13.20
2019-02-21T14:25:12.672Z,13.30
2019-02-21T14:27:41.179Z,13.10
2019-02-21T14:30:18.004Z,13.20
2019-02-21T14:32:46.432Z,13.20
2019-02-21T14:35:15.507Z,13.50
2019-02-21T14:37:43.963Z,14.00
2019-02-21T14:40:14.647Z,13.80
2019-02-21T14:42:43.077Z,14.00
2019-02-21T14:45:14.310Z,14.40
2019-02-21T14:47:42.756Z,14.70
2019-02-21T14:50:12.306Z,15.10
2019-02-21T14:52:40.798Z,15.40
2019-02-21T14:55:11.561Z,15.50
2019-02-21T14:57:41.230Z,15.20
2019-02-21T15:00:18.865Z,15.40
2019-02-21T15:02:47.308Z,15.30
2019-02-21T15:05:15.785Z,15.20
2019-02-21T15:07:44.220Z,15.20
2019-02-21T15:10:12.645Z,14.70
2019-02-21T15:12:41.079Z,14.90
2019-02-21T15:15:15.249Z,15.00
2019-02-21T15:17:43.701Z,15.10
2019-02-21T15:20:14.257Z,14.60
2019-02-21T15:22:42.682Z,14.90
2019-02-21T15:25:11.113Z,14.70
2019-02-21T15:27:39.568Z,14.90
2019-02-21T15:30:11.039Z,14.90
2019-02-21T15:32:39.476Z,14.50
2019-02-21T15:35:07.969Z,14.80
2019-02-21T15:37:36.400Z,14.80
2019-02-21T15:40:08.806Z,14.70
2019-02-21T15:42:37.490Z,14.50
2019-02-21T15:45:21.921Z,14.50
2019-02-21T15:47:41.758Z,14.20
2019-02-21T15:50:12.610Z,13.50
2019-02-21T15:52:41.417Z,13.70
2019-02-21T15:55:12.968Z,13.90
2019-02-21T15:57:41.669Z,13.80
2019-02-21T16:00:15.349Z,13.30
2019-02-21T16:02:43.791Z,13.50
2019-02-21T16:05:12.214Z,13.60
2019-02-21T16:07:40.628Z,13.70
2019-02-21T16:10:12.139Z,13.20
2019-02-21T16:12:41.072Z,12.90
2019-02-21T16:15:16.168Z,12.80
2019-02-21T16:17:43.957Z,12.90
2019-02-21T16:20:14.517Z,13.10
2019-02-21T16:22:43.684Z,13.20
2019-02-21T16:25:17.400Z,13.30
2019-02-21T16:27:45.832Z,13.30
2019-02-21T16:30:14.988Z,13.20
2019-02-21T16:32:43.450Z,12.70
2019-02-21T16:35:13.817Z,12.50
2019-02-21T16:37:42.321Z,12.50
2019-02-21T16:40:15.408Z,12.40
2019-02-21T16:42:43.948Z,12.40
2019-02-21T16:45:20.784Z,12.40
2019-02-21T16:47:49.204Z,12.20
2019-02-21T16:50:28.822Z,12.10
2019-02-21T16:52:47.778Z,12.00
2019-02-21T16:55:21.017Z,11.90
2019-02-21T16:57:49.497Z,11.80
2019-02-21T17:00:19.166Z,11.60
2019-02-21T17:02:47.644Z,11.60
2019-02-21T17:05:16.454Z,11.60
2019-02-21T17:07:44.848Z,11.60
2019-02-21T17:10:32.618Z,11.60
2019-02-21T17:13:01.039Z,11.60
2019-02-21T17:15:29.568Z,11.40
2019-02-21T17:17:58.055Z,11.40
2019-02-21T17:20:26.526Z,11.50
2019-02-21T17:22:54.944Z,11.60
2019-02-21T17:25:23.373Z,11.70
2019-02-21T17:27:51.826Z,11.80
2019-02-21T17:30:20.787Z,11.90
2019-02-21T17:32:49.326Z,11.90
2019-02-21T17:35:18.028Z,11.90
2019-02-21T17:37:46.729Z,12.00
2019-02-21T17:40:23.337Z,11.90
2019-02-21T17:42:53.689Z,11.90
2019-02-21T17:45:22.734Z,11.80
2019-02-21T17:47:57.208Z,11.80
2019-02-21T17:50:36.064Z,11.60
2019-02-21T17:53:04.544Z,11.20
2019-02-21T17:55:33.019Z,11.20
2019-02-21T17:58:01.440Z,11.20
2019-02-21T18:00:31.578Z,11.00
2019-02-21T18:03:00.012Z,10.90
2019-02-21T18:05:28.485Z,10.90
2019-02-21T18:07:56.958Z,10.80
2019-02-21T18:10:25.421Z,10.80
2019-02-21T18:12:53.905Z,10.90
2019-02-21T18:15:22.315Z,11.00
2019-02-21T18:17:50.789Z,11.00
2019-02-21T18:20:19.231Z,10.80
2019-02-21T18:22:47.655Z,10.60
2019-02-21T18:25:31.347Z,10.60
2019-02-21T18:27:59.844Z,10.50
2019-02-21T18:30:28.298Z,10.60
2019-02-21T18:32:56.726Z,10.60
2019-02-21T18:35:25.157Z,10.50
2019-02-21T18:37:53.560Z,10.50
2019-02-21T18:40:24.018Z,10.50
2019-02-21T18:42:52.464Z,10.40
2019-02-21T18:45:21.084Z,10.40
2019-02-21T18:47:49.511Z,10.40
2019-02-21T18:50:17.937Z,10.30
2019-02-21T18:52:47.242Z,10.30
2019-02-21T18:55:15.727Z,10.30
2019-02-21T18:57:44.156Z,10.20
2019-02-21T19:00:24.127Z,10.30
2019-02-21T19:02:53.295Z,10.30
2019-02-21T19:05:22.142Z,10.30
2019-02-21T19:08:00.397Z,10.20
2019-02-21T19:10:21.884Z,10.20
2019-02-21T19:12:50.701Z,10.10
2019-02-21T19:15:20.666Z,10.00
2019-02-21T19:17:49.253Z,10.00
2019-02-21T19:20:21.374Z,10.00
2019-02-21T19:22:49.882Z,9.90
2019-02-21T19:25:18.401Z,9.90
2019-02-21T19:27:46.930Z,10.00
2019-02-21T19:30:18.429Z,9.90
2019-02-21T19:32:46.934Z,9.80
2019-02-21T19:35:16.179Z,9.70
2019-02-21T19:37:44.601Z,9.70
2019-02-21T19:40:13.229Z,9.70
2019-02-21T19:42:41.813Z,9.80
2019-02-21T19:45:10.415Z,9.80
2019-02-21T19:47:58.161Z,9.70
2019-02-21T19:50:26.921Z,9.60
2019-02-21T19:52:55.323Z,9.60
2019-02-21T19:55:24.001Z,9.60
2019-02-21T19:57:52.417Z,9.60
2019-02-21T20:00:30.402Z,9.70
2019-02-21T20:02:58.874Z,9.70
2019-02-21T20:05:28.861Z,9.70
2019-02-21T20:08:07.868Z,9.60
2019-02-21T20:10:27.442Z,9.60
2019-02-21T20:12:57.592Z,9.70
2019-02-21T20:15:26.024Z,9.70
2019-02-21T20:17:54.498Z,9.70
2019-02-21T20:20:27.432Z,9.70
2019-02-21T20:22:55.915Z,9.70
2019-02-21T20:25:24.339Z,9.70
2019-02-21T20:27:52.740Z,9.70
2019-02-21T20:30:21.248Z,9.70
2019-02-21T20:32:49.711Z,9.60
2019-02-21T20:35:18.209Z,9.60
2019-02-21T20:37:46.673Z,9.50
2019-02-21T20:40:15.256Z,9.40
2019-02-21T20:42:43.767Z,9.30
2019-02-21T20:45:13.472Z,9.20
2019-02-21T20:47:41.969Z,9.00
2019-02-21T20:50:12.776Z,8.90
2019-02-21T20:52:41.408Z,8.90
2019-02-21T20:55:11.174Z,8.90
2019-02-21T20:57:39.699Z,9.00
2019-02-21T21:00:13.761Z,9.00
2019-02-21T21:02:42.357Z,9.00
2019-02-21T21:05:10.860Z,9.10
2019-02-21T21:07:39.279Z,9.10
2019-02-21T21:10:12.292Z,9.20
2019-02-21T21:12:40.705Z,9.30
2019-02-21T21:15:10.662Z,9.30
2019-02-21T21:17:39.085Z,9.40
2019-02-21T21:20:16.569Z,9.50
2019-02-21T21:22:40.520Z,9.40
2019-02-21T21:25:11.866Z,9.40
2019-02-21T21:27:40.346Z,9.50
2019-02-21T21:30:11.510Z,9.40
2019-02-21T21:32:40.063Z,9.40
2019-02-21T21:35:08.613Z,9.40
2019-02-21T21:37:37.065Z,9.50
2019-02-21T21:40:16.784Z,9.50
2019-02-21T21:42:45.211Z,9.40
2019-02-21T21:45:19.651Z,9.50
2019-02-21T21:47:48.098Z,9.50
2019-02-21T21:50:17.943Z,9.40
2019-02-21T21:52:46.502Z,9.50
2019-02-21T21:55:15.377Z,9.60
2019-02-21T21:57:44.055Z,9.70
2019-02-21T22:00:17.935Z,9.60
2019-02-21T22:02:46.083Z,9.30
2019-02-21T22:05:14.543Z,8.90
2019-02-21T22:07:42.993Z,8.70
2019-02-21T22:10:13.153Z,8.60
2019-02-21T22:12:41.693Z,8.60
2019-02-21T22:15:12.891Z,8.60
2019-02-21T22:17:42.211Z,8.70
2019-02-21T22:20:10.836Z,8.60
2019-02-21T22:22:39.359Z,8.60
2019-02-21T22:25:10.254Z,8.70
2019-02-21T22:27:38.736Z,8.80
2019-02-21T22:30:15.937Z,8.90
2019-02-21T22:32:44.625Z,8.70
2019-02-21T22:35:13.279Z,8.70
2019-02-21T22:37:41.717Z,8.70
2019-02-21T22:40:12.477Z,8.70
2019-02-21T22:42:40.911Z,8.70
2019-02-21T22:45:10.313Z,8.70
2019-02-21T22:47:38.912Z,8.80
2019-02-21T22:50:15.523Z,8.80
2019-02-21T22:52:47.079Z,8.90
2019-02-21T22:55:15.607Z,9.00
2019-02-21T22:57:44.091Z,9.20
2019-02-21T23:00:36.706Z,9.40
2019-02-21T23:03:08.287Z,9.40
2019-02-21T23:06:03.640Z,9.50
2019-02-21T23:08:46.954Z,9.60
2019-02-21T23:11:15.482Z,9.60
2019-02-21T23:13:44.260Z,9.70
2019-02-21T23:16:12.693Z,9.70
2019-02-21T23:18:41.300Z,9.70
2019-02-21T23:21:11.412Z,9.70
2019-02-21T23:23:41.643Z,9.80
2019-02-21T23:26:10.935Z,9.80
2019-02-21T23:28:39.533Z,9.80
2019-02-21T23:31:08.076Z,9.70
2019-02-21T23:33:38.126Z,9.80
2019-02-21T23:36:08.176Z,9.70
2019-02-21T23:38:37.035Z,9.70
2019-02-21T23:41:05.509Z,9.60
2019-02-21T23:43:37.140Z,9.10
2019-02-21T23:46:05.784Z,9.00
2019-02-21T23:48:34.227Z,9.00
2019-02-21T23:51:02.632Z,9.10
2019-02-21T23:53:31.076Z,9.00
2019-02-21T23:55:59.573Z,8.80
2019-02-21T23:58:28.640Z,8.90
